G. M. Dannevig — LINW — position and weather

sailwx.info

Track history (hours):
 
Tides and Currents Weather Stations Pressure Air Temp Water Temp Dewpoint Dewpoint Depression Visibility Wind Speed Wind Dir Waves Ship Positions

Oceanographic research ship G. M. Dannevig (Norway)

Detailed information on ship capabilities available from University of Delaware's Ocean Information Center.

Last reported at 2017-Apr-29 11:30 UTC. Time now 2017-Apr-29 11:30 UTC.
Position N 59°16' E 010°25'.

Length 27 m; draft 0.35 m.

Type: Dredging. MMSI: 258513000.

Date/timePositionNaut miles runAvg speedWind from/ knotsBaromVisibWave heightAir tempDewpointWater temp
2017-Apr-29 11:30N 59°16' E 010°25'0 0.0
2017-Apr-29 11:00N 59°16' E 010°25'0 0.0
2017-Apr-29 10:30N 59°16' E 010°25'0 0.0
2017-Apr-29 10:00N 59°16' E 010°25'0 0.0
2017-Apr-29 09:30N 59°16' E 010°25'0 0.0
2017-Apr-29 09:00N 59°16' E 010°25'0 0.0
2017-Apr-29 08:30N 59°16' E 010°25'0 0.0
2017-Apr-29 08:00N 59°16' E 010°25'0 0.0
2017-Apr-29 07:30N 59°16' E 010°25'0 0.0
2017-Apr-29 07:00N 59°16' E 010°25'0 0.0
2017-Apr-29 06:30N 59°16' E 010°25'0 0.0
2017-Apr-29 06:00N 59°16' E 010°25'0 0.0
2017-Apr-29 05:30N 59°16' E 010°25'0 0.0
2017-Apr-29 05:00N 59°16' E 010°25'0 0.0
2017-Apr-29 04:30N 59°16' E 010°25'0 0.0
2017-Apr-29 04:00N 59°16' E 010°25'0 0.0
2017-Apr-29 03:30N 59°16' E 010°25'0 0.0
2017-Apr-29 03:00N 59°16' E 010°25'0 0.0
2017-Apr-29 02:30N 59°16' E 010°25'0 0.0
2017-Apr-29 02:00N 59°16' E 010°25'0 0.0
2017-Apr-29 01:30N 59°16' E 010°25'0 0.0
2017-Apr-29 01:00N 59°16' E 010°25'0 0.0
2017-Apr-29 00:30N 59°16' E 010°25'0 0.0
2017-Apr-29 00:00N 59°16' E 010°25'0 0.0
2017-Apr-28 23:30N 59°16' E 010°25'0 0.0
2017-Apr-28 23:00N 59°16' E 010°25'0 0.0
2017-Apr-28 22:30N 59°16' E 010°25'0 0.0
2017-Apr-28 22:00N 59°16' E 010°25'0 0.0
2017-Apr-28 21:30N 59°16' E 010°25'0 0.0
2017-Apr-28 21:00N 59°16' E 010°25'0 0.0
2017-Apr-28 20:30N 59°16' E 010°25'0 0.0
2017-Apr-28 20:00N 59°16' E 010°25'0 0.0
2017-Apr-28 19:30N 59°16' E 010°25'0 0.0
2017-Apr-28 19:00N 59°16' E 010°25'0 0.0
2017-Apr-28 18:30N 59°16' E 010°25'0 0.0
2017-Apr-28 18:00N 59°16' E 010°25'0 0.0
2017-Apr-28 17:30N 59°16' E 010°25'0 0.0
2017-Apr-28 17:00N 59°16' E 010°25'1 1.7
2017-Apr-28 16:30N 59°15' E 010°27'4 7.6
2017-Apr-28 16:00N 59°12' E 010°31'4 7.6
2017-Apr-28 15:30N 59°09' E 010°34'4 7.5
2017-Apr-28 15:00N 59°05' E 010°38'5 5.4
2017-Apr-28 14:00N 59°02' E 010°47'2 3.8
2017-Apr-28 13:30N 59°03' E 010°50'3 6.9
2017-Apr-28 13:01N 59°07' E 010°48'3 5.8
2017-Apr-28 12:30N 59°10' E 010°46'3 6.1
2017-Apr-28 12:00N 59°11' E 010°41'0 0.4
2017-Apr-28 11:31N 59°11' E 010°41'5 9.2
2017-Apr-28 11:00N 59°15' E 010°39'5 9.5
2017-Apr-28 10:30N 59°20' E 010°37'2 5.0
2017-Apr-28 10:00N 59°22' E 010°36'4 7.7
2017-Apr-28 09:30N 59°26' E 010°35'5 9.6
2017-Apr-28 09:00N 59°31' E 010°37'5 9.1
2017-Apr-28 08:30N 59°35' E 010°38'3 6.0
2017-Apr-28 08:00N 59°33' E 010°36'4 8.7
2017-Apr-28 07:30N 59°30' E 010°29'2 3.8
2017-Apr-28 07:00N 59°28' E 010°29'4 8.5
2017-Apr-28 06:30N 59°24' E 010°32'4 8.2
2017-Apr-28 06:00N 59°20' E 010°33'4 8.4
2017-Apr-28 05:30N 59°16' E 010°33'3 5.4
2017-Apr-28 05:00N 59°13' E 010°31'0 0.9
2017-Apr-28 04:30N 59°13' E 010°32'0 0.0
2017-Apr-28 04:00N 59°13' E 010°32'0 0.0
2017-Apr-28 03:30N 59°13' E 010°32'0 0.0
2017-Apr-28 03:00N 59°13' E 010°32'0 0.0
2017-Apr-28 02:30N 59°13' E 010°32'0 0.0
2017-Apr-28 02:00N 59°13' E 010°32'0 0.0
2017-Apr-28 01:30N 59°13' E 010°32'0 0.0
2017-Apr-28 01:00N 59°13' E 010°32'0 0.0
2017-Apr-28 00:30N 59°13' E 010°32'0 0.0
2017-Apr-28 00:00N 59°13' E 010°32'0 0.0
2017-Apr-27 23:30N 59°13' E 010°32'0 0.0
2017-Apr-27 23:00N 59°13' E 010°32'0 0.0
2017-Apr-27 22:30N 59°13' E 010°32'0 0.0
2017-Apr-27 22:00N 59°13' E 010°32'0 0.0
2017-Apr-27 21:30N 59°13' E 010°32'0 0.0
2017-Apr-27 21:00N 59°13' E 010°32'0 0.0
2017-Apr-27 20:30N 59°13' E 010°32'0 0.0
2017-Apr-27 20:00N 59°13' E 010°32'0 0.0
2017-Apr-27 19:30N 59°13' E 010°32'0 0.0
2017-Apr-27 19:00N 59°13' E 010°32'0 0.0
2017-Apr-27 18:30N 59°13' E 010°32'0 0.0
2017-Apr-27 18:00N 59°13' E 010°32'0 0.0
2017-Apr-27 17:30N 59°13' E 010°32'0 0.0
2017-Apr-27 17:00N 59°13' E 010°32'0 0.0
2017-Apr-27 16:30N 59°13' E 010°32'0 0.0
2017-Apr-27 16:00N 59°13' E 010°32'3 6.6
2017-Apr-27 15:30N 59°10' E 010°33'5 9.1
2017-Apr-27 15:00N 59°05' E 010°31'9 8.7
2017-Apr-27 14:00N 58°59' E 010°20'4 8.6
2017-Apr-27 13:30N 58°58' E 010°12'4 8.4
2017-Apr-27 13:00N 58°57' E 010°04'4 8.6
2017-Apr-27 12:30N 58°57' E 009°56'4 7.7
2017-Apr-27 12:00N 58°58' E 009°48'4 7.2
2017-Apr-27 11:30N 59°01' E 009°48'3 6.6
2017-Apr-27 11:00N 59°03' E 009°42'1 1.6
2017-Apr-27 10:06N 59°03' E 009°40'1 7.8
2017-Apr-27 10:00N 59°03' E 009°41'5 6.8
2017-Apr-27 09:19N 58°60' E 009°47'2 6.5
2017-Apr-27 09:00N 58°58' E 009°47'2 4.3
2017-Apr-27 08:30N 58°56' E 009°45'4 8.9
2017-Apr-27 08:00N 58°52' E 009°39'4 8.4
2017-Apr-27 07:30N 58°49' E 009°34'4 8.7
2017-Apr-27 07:00N 58°47' E 009°27'36 2.0
2017-Apr-26 13:19N 58°12' E 009°06'1 2.1
2017-Apr-26 12:58N 58°12' E 009°05'2 0.1
2017-Apr-25 11:42N 58°10' E 009°08'2 9.2
2017-Apr-25 11:30N 58°11' E 009°06'4 9.0
2017-Apr-25 11:00N 58°15' E 009°01'2 4.0
2017-Apr-25 10:30N 58°16' E 008°58'5 9.1
2017-Apr-25 10:00N 58°20' E 008°53'3 5.8
2017-Apr-25 09:28N 58°23' E 008°51'1 1.9
2017-Apr-25 09:00N 58°23' E 008°50'3 1.5
2017-Apr-25 07:01N 58°25' E 008°46'0 7.4
2017-Apr-25 07:00N 58°25' E 008°46'2 3.3
2017-Apr-25 06:30N 58°24' E 008°46'1 0.0
2017-Apr-23 17:27N 58°25' E 008°45'4 8.5
2017-Apr-23 17:00N 58°22' E 008°43'4 8.9
2017-Apr-23 16:30N 58°18' E 008°37'4 9.0
2017-Apr-23 16:00N 58°14' E 008°32'4 8.6
2017-Apr-23 15:30N 58°11' E 008°27'4 8.5
2017-Apr-23 15:00N 58°08' E 008°21'4 8.3
2017-Apr-23 14:30N 58°06' E 008°15'26 8.5
2017-Apr-23 11:25N 57°57' E 007°28'4 8.6
2017-Apr-23 11:00N 57°58' E 007°21'5 8.8
2017-Apr-23 10:27N 57°58' E 007°12'4 9.0
2017-Apr-23 10:00N 57°58' E 007°05'5 9.4
2017-Apr-23 09:30N 57°59' E 006°56'5 9.6
2017-Apr-23 09:00N 58°01' E 006°48'5 9.9
2017-Apr-23 08:30N 58°03' E 006°39'5 9.7
2017-Apr-23 08:00N 58°06' E 006°32'5 9.8
2017-Apr-23 07:30N 58°10' E 006°25'5 9.9
2017-Apr-23 07:00N 58°13' E 006°19'5 9.7
2017-Apr-23 06:30N 58°17' E 006°13'5 9.6
2017-Apr-23 06:00N 58°20' E 006°06'5 9.2
2017-Apr-23 05:30N 58°23' E 006°00'3 7.0
2017-Apr-23 05:00N 58°27' E 005°60'0 0.0
2017-Apr-23 04:30N 58°27' E 005°60'0 0.0
2017-Apr-23 04:00N 58°27' E 005°60'0 0.0
2017-Apr-23 03:30N 58°27' E 005°60'0 0.0
2017-Apr-23 03:00N 58°27' E 005°60'0 0.0
2017-Apr-23 02:30N 58°27' E 005°60'0 0.0
2017-Apr-23 02:00N 58°27' E 005°60'0 0.0
2017-Apr-23 01:30N 58°27' E 005°60'0 0.0
2017-Apr-23 01:00N 58°27' E 005°60'0 0.0
2017-Apr-23 00:30N 58°27' E 005°60'0 0.0
2017-Apr-23 00:00N 58°27' E 005°60'0 0.0
2017-Apr-22 23:30N 58°27' E 005°60'0 0.0
2017-Apr-22 23:00N 58°27' E 005°60'0 0.0
2017-Apr-22 22:30N 58°27' E 005°60'0 0.0
2017-Apr-22 22:00N 58°27' E 005°60'0 0.0
2017-Apr-22 21:30N 58°27' E 005°60'0 0.0
2017-Apr-22 21:00N 58°27' E 005°60'0 0.0
2017-Apr-22 20:30N 58°27' E 005°60'0 0.0
2017-Apr-22 20:00N 58°27' E 005°60'0 0.0
2017-Apr-22 19:30N 58°27' E 005°60'0 0.0
2017-Apr-22 19:00N 58°27' E 005°60'0 0.0
2017-Apr-22 18:30N 58°27' E 005°60'0 0.0
2017-Apr-22 18:00N 58°27' E 005°60'0 0.0
2017-Apr-22 17:30N 58°27' E 005°60'0 0.0
2017-Apr-22 17:00N 58°27' E 005°60'0 0.0
2017-Apr-22 16:30N 58°27' E 005°60'0 0.0
2017-Apr-22 16:00N 58°27' E 005°60'0 0.0
2017-Apr-22 15:30N 58°27' E 005°60'2 4.4
2017-Apr-22 15:00N 58°28' E 005°56'4 8.4
2017-Apr-22 14:30N 58°28' E 005°48'9 9.2
2017-Apr-22 13:30N 58°35' E 005°36'5 9.8
2017-Apr-22 13:00N 58°39' E 005°31'5 9.7
2017-Apr-22 12:30N 58°43' E 005°27'5 9.4
2017-Apr-22 12:00N 58°48' E 005°24'5 9.6
2017-Apr-22 11:30N 58°53' E 005°22'5 9.6
2017-Apr-22 11:00N 58°57' E 005°20'5 9.5
2017-Apr-22 10:30N 59°02' E 005°19'5 9.4
2017-Apr-22 10:00N 59°07' E 005°20'5 9.4
2017-Apr-22 09:30N 59°11' E 005°20'5 9.9
2017-Apr-22 09:00N 59°16' E 005°20'13 8.5
2017-Apr-22 07:30N 59°29' E 005°13'5 9.3
2017-Apr-22 07:00N 59°33' E 005°14'5 9.9
2017-Apr-22 06:29N 59°38' E 005°18'5 9.7
2017-Apr-22 05:59N 59°41' E 005°25'5 9.4
2017-Apr-22 05:30N 59°45' E 005°30'2 3.2
2017-Apr-22 04:56N 59°47' E 005°30'0 0.0
2017-Apr-22 04:26N 59°47' E 005°30'0 0.0
2017-Apr-22 03:56N 59°47' E 005°30'0 0.0
2017-Apr-22 03:26N 59°47' E 005°30'0 0.0
2017-Apr-22 02:56N 59°47' E 005°30'0 0.0
2017-Apr-22 02:26N 59°47' E 005°30'0 0.0
2017-Apr-22 01:56N 59°47' E 005°30'0 0.0
2017-Apr-22 01:26N 59°47' E 005°30'0 0.0
2017-Apr-22 00:56N 59°47' E 005°30'0 0.0
2017-Apr-22 00:26N 59°47' E 005°30'0 0.0
2017-Apr-21 23:57N 59°47' E 005°30'0 0.0
2017-Apr-21 23:26N 59°47' E 005°30'0 0.0
2017-Apr-21 22:56N 59°47' E 005°30'0 0.0
2017-Apr-21 22:26N 59°47' E 005°30'0 0.0
2017-Apr-21 21:56N 59°47' E 005°30'0 0.0
2017-Apr-21 21:26N 59°47' E 005°30'0 0.0
2017-Apr-21 20:56N 59°47' E 005°30'0 0.0
2017-Apr-21 20:26N 59°47' E 005°30'0 0.0
2017-Apr-21 19:56N 59°47' E 005°30'0 0.0
2017-Apr-21 19:26N 59°47' E 005°30'0 0.0
2017-Apr-21 18:56N 59°47' E 005°30'0 0.0
2017-Apr-21 18:26N 59°47' E 005°30'0 0.0
2017-Apr-21 17:56N 59°47' E 005°30'0 0.0
2017-Apr-21 17:26N 59°47' E 005°30'2 3.7
2017-Apr-21 17:01N 59°47' E 005°33'510.5
2017-Apr-21 16:30N 59°52' E 005°32'  
Track history (hours):
 
Tides and Currents Weather Stations Pressure Air Temp Water Temp Dewpoint Dewpoint Depression Visibility Wind Speed Wind Dir Waves Ship Positions

Oceanographic research ship G. M. Dannevig (Norway)

Detailed information on ship capabilities available from University of Delaware's Ocean Information Center.

Last reported at 2017-Apr-29 11:30 UTC. Time now 2017-Apr-29 11:30 UTC.
Position N 59°16' E 010°25'.

Length 27 m; draft 0.35 m.

Type: Dredging. MMSI: 258513000.

Date/timePositionNaut miles runAvg speedWind from/ knotsBaromVisibWave heightAir tempDewpointWater temp
2017-Apr-29 11:30N 59°16' E 010°25'0 0.0
2017-Apr-29 11:00N 59°16' E 010°25'0 0.0
2017-Apr-29 10:30N 59°16' E 010°25'0 0.0
2017-Apr-29 10:00N 59°16' E 010°25'0 0.0
2017-Apr-29 09:30N 59°16' E 010°25'0 0.0
2017-Apr-29 09:00N 59°16' E 010°25'0 0.0
2017-Apr-29 08:30N 59°16' E 010°25'0 0.0
2017-Apr-29 08:00N 59°16' E 010°25'0 0.0
2017-Apr-29 07:30N 59°16' E 010°25'0 0.0
2017-Apr-29 07:00N 59°16' E 010°25'0 0.0
2017-Apr-29 06:30N 59°16' E 010°25'0 0.0
2017-Apr-29 06:00N 59°16' E 010°25'0 0.0
2017-Apr-29 05:30N 59°16' E 010°25'0 0.0
2017-Apr-29 05:00N 59°16' E 010°25'0 0.0
2017-Apr-29 04:30N 59°16' E 010°25'0 0.0
2017-Apr-29 04:00N 59°16' E 010°25'0 0.0
2017-Apr-29 03:30N 59°16' E 010°25'0 0.0
2017-Apr-29 03:00N 59°16' E 010°25'0 0.0
2017-Apr-29 02:30N 59°16' E 010°25'0 0.0
2017-Apr-29 02:00N 59°16' E 010°25'0 0.0
2017-Apr-29 01:30N 59°16' E 010°25'0 0.0
2017-Apr-29 01:00N 59°16' E 010°25'0 0.0
2017-Apr-29 00:30N 59°16' E 010°25'0 0.0
2017-Apr-29 00:00N 59°16' E 010°25'0 0.0
2017-Apr-28 23:30N 59°16' E 010°25'0 0.0
2017-Apr-28 23:00N 59°16' E 010°25'0 0.0
2017-Apr-28 22:30N 59°16' E 010°25'0 0.0
2017-Apr-28 22:00N 59°16' E 010°25'0 0.0
2017-Apr-28 21:30N 59°16' E 010°25'0 0.0
2017-Apr-28 21:00N 59°16' E 010°25'0 0.0
2017-Apr-28 20:30N 59°16' E 010°25'0 0.0
2017-Apr-28 20:00N 59°16' E 010°25'0 0.0
2017-Apr-28 19:30N 59°16' E 010°25'0 0.0
2017-Apr-28 19:00N 59°16' E 010°25'0 0.0
2017-Apr-28 18:30N 59°16' E 010°25'0 0.0
2017-Apr-28 18:00N 59°16' E 010°25'0 0.0
2017-Apr-28 17:30N 59°16' E 010°25'0 0.0
2017-Apr-28 17:00N 59°16' E 010°25'1 1.7
2017-Apr-28 16:30N 59°15' E 010°27'4 7.6
2017-Apr-28 16:00N 59°12' E 010°31'4 7.6
2017-Apr-28 15:30N 59°09' E 010°34'4 7.5
2017-Apr-28 15:00N 59°05' E 010°38'5 5.4
2017-Apr-28 14:00N 59°02' E 010°47'2 3.8
2017-Apr-28 13:30N 59°03' E 010°50'3 6.9
2017-Apr-28 13:01N 59°07' E 010°48'3 5.8
2017-Apr-28 12:30N 59°10' E 010°46'3 6.1
2017-Apr-28 12:00N 59°11' E 010°41'0 0.4
2017-Apr-28 11:31N 59°11' E 010°41'5 9.2
2017-Apr-28 11:00N 59°15' E 010°39'5 9.5
2017-Apr-28 10:30N 59°20' E 010°37'2 5.0
2017-Apr-28 10:00N 59°22' E 010°36'4 7.7
2017-Apr-28 09:30N 59°26' E 010°35'5 9.6
2017-Apr-28 09:00N 59°31' E 010°37'5 9.1
2017-Apr-28 08:30N 59°35' E 010°38'3 6.0
2017-Apr-28 08:00N 59°33' E 010°36'4 8.7
2017-Apr-28 07:30N 59°30' E 010°29'2 3.8
2017-Apr-28 07:00N 59°28' E 010°29'4 8.5
2017-Apr-28 06:30N 59°24' E 010°32'4 8.2
2017-Apr-28 06:00N 59°20' E 010°33'4 8.4
2017-Apr-28 05:30N 59°16' E 010°33'3 5.4
2017-Apr-28 05:00N 59°13' E 010°31'0 0.9
2017-Apr-28 04:30N 59°13' E 010°32'0 0.0
2017-Apr-28 04:00N 59°13' E 010°32'0 0.0
2017-Apr-28 03:30N 59°13' E 010°32'0 0.0
2017-Apr-28 03:00N 59°13' E 010°32'0 0.0
2017-Apr-28 02:30N 59°13' E 010°32'0 0.0
2017-Apr-28 02:00N 59°13' E 010°32'0 0.0
2017-Apr-28 01:30N 59°13' E 010°32'0 0.0
2017-Apr-28 01:00N 59°13' E 010°32'0 0.0
2017-Apr-28 00:30N 59°13' E 010°32'0 0.0
2017-Apr-28 00:00N 59°13' E 010°32'0 0.0
2017-Apr-27 23:30N 59°13' E 010°32'0 0.0
2017-Apr-27 23:00N 59°13' E 010°32'0 0.0
2017-Apr-27 22:30N 59°13' E 010°32'0 0.0
2017-Apr-27 22:00N 59°13' E 010°32'0 0.0
2017-Apr-27 21:30N 59°13' E 010°32'0 0.0
2017-Apr-27 21:00N 59°13' E 010°32'0 0.0
2017-Apr-27 20:30N 59°13' E 010°32'0 0.0
2017-Apr-27 20:00N 59°13' E 010°32'0 0.0
2017-Apr-27 19:30N 59°13' E 010°32'0 0.0
2017-Apr-27 19:00N 59°13' E 010°32'0 0.0
2017-Apr-27 18:30N 59°13' E 010°32'0 0.0
2017-Apr-27 18:00N 59°13' E 010°32'0 0.0
2017-Apr-27 17:30N 59°13' E 010°32'0 0.0
2017-Apr-27 17:00N 59°13' E 010°32'0 0.0
2017-Apr-27 16:30N 59°13' E 010°32'0 0.0
2017-Apr-27 16:00N 59°13' E 010°32'3 6.6
2017-Apr-27 15:30N 59°10' E 010°33'5 9.1
2017-Apr-27 15:00N 59°05' E 010°31'9 8.7
2017-Apr-27 14:00N 58°59' E 010°20'4 8.6
2017-Apr-27 13:30N 58°58' E 010°12'4 8.4
2017-Apr-27 13:00N 58°57' E 010°04'4 8.6
2017-Apr-27 12:30N 58°57' E 009°56'4 7.7
2017-Apr-27 12:00N 58°58' E 009°48'4 7.2
2017-Apr-27 11:30N 59°01' E 009°48'3 6.6
2017-Apr-27 11:00N 59°03' E 009°42'1 1.6
2017-Apr-27 10:06N 59°03' E 009°40'1 7.8
2017-Apr-27 10:00N 59°03' E 009°41'5 6.8
2017-Apr-27 09:19N 58°60' E 009°47'2 6.5
2017-Apr-27 09:00N 58°58' E 009°47'2 4.3
2017-Apr-27 08:30N 58°56' E 009°45'4 8.9
2017-Apr-27 08:00N 58°52' E 009°39'4 8.4
2017-Apr-27 07:30N 58°49' E 009°34'4 8.7
2017-Apr-27 07:00N 58°47' E 009°27'36 2.0
2017-Apr-26 13:19N 58°12' E 009°06'1 2.1
2017-Apr-26 12:58N 58°12' E 009°05'2 0.1
2017-Apr-25 11:42N 58°10' E 009°08'2 9.2
2017-Apr-25 11:30N 58°11' E 009°06'4 9.0
2017-Apr-25 11:00N 58°15' E 009°01'2 4.0
2017-Apr-25 10:30N 58°16' E 008°58'5 9.1
2017-Apr-25 10:00N 58°20' E 008°53'3 5.8
2017-Apr-25 09:28N 58°23' E 008°51'1 1.9
2017-Apr-25 09:00N 58°23' E 008°50'3 1.5
2017-Apr-25 07:01N 58°25' E 008°46'0 7.4
2017-Apr-25 07:00N 58°25' E 008°46'2 3.3
2017-Apr-25 06:30N 58°24' E 008°46'1 0.0
2017-Apr-23 17:27N 58°25' E 008°45'4 8.5
2017-Apr-23 17:00N 58°22' E 008°43'4 8.9
2017-Apr-23 16:30N 58°18' E 008°37'4 9.0
2017-Apr-23 16:00N 58°14' E 008°32'4 8.6
2017-Apr-23 15:30N 58°11' E 008°27'4 8.5
2017-Apr-23 15:00N 58°08' E 008°21'4 8.3
2017-Apr-23 14:30N 58°06' E 008°15'26 8.5
2017-Apr-23 11:25N 57°57' E 007°28'4 8.6
2017-Apr-23 11:00N 57°58' E 007°21'5 8.8
2017-Apr-23 10:27N 57°58' E 007°12'4 9.0
2017-Apr-23 10:00N 57°58' E 007°05'5 9.4
2017-Apr-23 09:30N 57°59' E 006°56'5 9.6
2017-Apr-23 09:00N 58°01' E 006°48'5 9.9
2017-Apr-23 08:30N 58°03' E 006°39'5 9.7
2017-Apr-23 08:00N 58°06' E 006°32'5 9.8
2017-Apr-23 07:30N 58°10' E 006°25'5 9.9
2017-Apr-23 07:00N 58°13' E 006°19'5 9.7
2017-Apr-23 06:30N 58°17' E 006°13'5 9.6
2017-Apr-23 06:00N 58°20' E 006°06'5 9.2
2017-Apr-23 05:30N 58°23' E 006°00'3 7.0
2017-Apr-23 05:00N 58°27' E 005°60'0 0.0
2017-Apr-23 04:30N 58°27' E 005°60'0 0.0
2017-Apr-23 04:00N 58°27' E 005°60'0 0.0
2017-Apr-23 03:30N 58°27' E 005°60'0 0.0
2017-Apr-23 03:00N 58°27' E 005°60'0 0.0
2017-Apr-23 02:30N 58°27' E 005°60'0 0.0
2017-Apr-23 02:00N 58°27' E 005°60'0 0.0
2017-Apr-23 01:30N 58°27' E 005°60'0 0.0
2017-Apr-23 01:00N 58°27' E 005°60'0 0.0
2017-Apr-23 00:30N 58°27' E 005°60'0 0.0
2017-Apr-23 00:00N 58°27' E 005°60'0 0.0
2017-Apr-22 23:30N 58°27' E 005°60'0 0.0
2017-Apr-22 23:00N 58°27' E 005°60'0 0.0
2017-Apr-22 22:30N 58°27' E 005°60'0 0.0
2017-Apr-22 22:00N 58°27' E 005°60'0 0.0
2017-Apr-22 21:30N 58°27' E 005°60'0 0.0
2017-Apr-22 21:00N 58°27' E 005°60'0 0.0
2017-Apr-22 20:30N 58°27' E 005°60'0 0.0
2017-Apr-22 20:00N 58°27' E 005°60'0 0.0
2017-Apr-22 19:30N 58°27' E 005°60'0 0.0
2017-Apr-22 19:00N 58°27' E 005°60'0 0.0
2017-Apr-22 18:30N 58°27' E 005°60'0 0.0
2017-Apr-22 18:00N 58°27' E 005°60'0 0.0
2017-Apr-22 17:30N 58°27' E 005°60'0 0.0
2017-Apr-22 17:00N 58°27' E 005°60'0 0.0
2017-Apr-22 16:30N 58°27' E 005°60'0 0.0
2017-Apr-22 16:00N 58°27' E 005°60'0 0.0
2017-Apr-22 15:30N 58°27' E 005°60'2 4.4
2017-Apr-22 15:00N 58°28' E 005°56'4 8.4
2017-Apr-22 14:30N 58°28' E 005°48'9 9.2
2017-Apr-22 13:30N 58°35' E 005°36'5 9.8
2017-Apr-22 13:00N 58°39' E 005°31'5 9.7
2017-Apr-22 12:30N 58°43' E 005°27'5 9.4
2017-Apr-22 12:00N 58°48' E 005°24'5 9.6
2017-Apr-22 11:30N 58°53' E 005°22'5 9.6
2017-Apr-22 11:00N 58°57' E 005°20'5 9.5
2017-Apr-22 10:30N 59°02' E 005°19'5 9.4
2017-Apr-22 10:00N 59°07' E 005°20'5 9.4
2017-Apr-22 09:30N 59°11' E 005°20'5 9.9
2017-Apr-22 09:00N 59°16' E 005°20'13 8.5
2017-Apr-22 07:30N 59°29' E 005°13'5 9.3
2017-Apr-22 07:00N 59°33' E 005°14'5 9.9
2017-Apr-22 06:29N 59°38' E 005°18'5 9.7
2017-Apr-22 05:59N 59°41' E 005°25'5 9.4
2017-Apr-22 05:30N 59°45' E 005°30'2 3.2
2017-Apr-22 04:56N 59°47' E 005°30'0 0.0
2017-Apr-22 04:26N 59°47' E 005°30'0 0.0
2017-Apr-22 03:56N 59°47' E 005°30'0 0.0
2017-Apr-22 03:26N 59°47' E 005°30'0 0.0
2017-Apr-22 02:56N 59°47' E 005°30'0 0.0
2017-Apr-22 02:26N 59°47' E 005°30'0 0.0
2017-Apr-22 01:56N 59°47' E 005°30'0 0.0
2017-Apr-22 01:26N 59°47' E 005°30'0 0.0
2017-Apr-22 00:56N 59°47' E 005°30'0 0.0
2017-Apr-22 00:26N 59°47' E 005°30'0 0.0
2017-Apr-21 23:57N 59°47' E 005°30'0 0.0
2017-Apr-21 23:26N 59°47' E 005°30'0 0.0
2017-Apr-21 22:56N 59°47' E 005°30'0 0.0
2017-Apr-21 22:26N 59°47' E 005°30'0 0.0
2017-Apr-21 21:56N 59°47' E 005°30'0 0.0
2017-Apr-21 21:26N 59°47' E 005°30'0 0.0
2017-Apr-21 20:56N 59°47' E 005°30'0 0.0
2017-Apr-21 20:26N 59°47' E 005°30'0 0.0
2017-Apr-21 19:56N 59°47' E 005°30'0 0.0
2017-Apr-21 19:26N 59°47' E 005°30'0 0.0
2017-Apr-21 18:56N 59°47' E 005°30'0 0.0
2017-Apr-21 18:26N 59°47' E 005°30'0 0.0
2017-Apr-21 17:56N 59°47' E 005°30'0 0.0
2017-Apr-21 17:26N 59°47' E 005°30'2 3.7
2017-Apr-21 17:01N 59°47' E 005°33'510.5
2017-Apr-21 16:30N 59°52' E 005°32'  

Dump ship's entire track history